sensor_id;sensor_type;location;lat;lon;timestamp;P1;durP1;ratioP1;P2;durP2;ratioP2
2564;SDS011;1292;48.020;7.822;2023-12-29T06:45:39;2.27;;;2.07;;
2564;SDS011;1292;48.020;7.822;2023-12-29T06:48:06;3.17;;;2.33;;
2564;SDS011;1292;48.020;7.822;2023-12-29T06:50:33;2.40;;;2.20;;
2564;SDS011;1292;48.020;7.822;2023-12-29T06:53:02;2.70;;;2.50;;
2564;SDS011;1292;48.020;7.822;2023-12-29T06:55:29;3.60;;;3.00;;
2564;SDS011;1292;48.020;7.822;2023-12-29T06:57:55;3.60;;;2.73;;
2564;SDS011;1292;48.020;7.822;2023-12-29T07:00:22;3.73;;;2.17;;
2564;SDS011;1292;48.020;7.822;2023-12-29T07:02:51;3.57;;;2.27;;
2564;SDS011;1292;48.020;7.822;2023-12-29T07:05:17;3.47;;;2.53;;
2564;SDS011;1292;48.020;7.822;2023-12-29T07:07:44;3.77;;;3.00;;
2564;SDS011;1292;48.020;7.822;2023-12-29T07:10:11;2.60;;;2.33;;
2564;SDS011;1292;48.020;7.822;2023-12-29T07:12:40;4.10;;;2.40;;
2564;SDS011;1292;48.020;7.822;2023-12-29T07:15:06;2.90;;;2.63;;
2564;SDS011;1292;48.020;7.822;2023-12-29T07:17:34;2.50;;;2.17;;
2564;SDS011;1292;48.020;7.822;2023-12-29T07:20:02;3.13;;;2.07;;
2564;SDS011;1292;48.020;7.822;2023-12-29T07:22:29;3.20;;;2.90;;
2564;SDS011;1292;48.020;7.822;2023-12-29T07:24:56;2.97;;;2.30;;
2564;SDS011;1292;48.020;7.822;2023-12-29T07:27:22;3.00;;;2.17;;
2564;SDS011;1292;48.020;7.822;2023-12-29T07:29:49;2.93;;;2.13;;
2564;SDS011;1292;48.020;7.822;2023-12-29T07:32:16;2.40;;;2.20;;
2564;SDS011;1292;48.020;7.822;2023-12-29T07:34:43;2.03;;;1.93;;
2564;SDS011;1292;48.020;7.822;2023-12-29T07:37:11;2.27;;;2.07;;
2564;SDS011;1292;48.020;7.822;2023-12-29T07:39:38;4.53;;;2.50;;
2564;SDS011;1292;48.020;7.822;2023-12-29T07:42:05;3.63;;;3.23;;
2564;SDS011;1292;48.020;7.822;2023-12-29T07:44:32;7.53;;;6.93;;
2564;SDS011;1292;48.020;7.822;2023-12-29T07:46:59;3.40;;;3.03;;
2564;SDS011;1292;48.020;7.822;2023-12-29T07:49:25;2.10;;;2.00;;
2564;SDS011;1292;48.020;7.822;2023-12-29T07:51:52;2.37;;;2.17;;
2564;SDS011;1292;48.020;7.822;2023-12-29T07:54:20;2.70;;;2.20;;
2564;SDS011;1292;48.020;7.822;2023-12-29T07:56:47;2.50;;;2.30;;
2564;SDS011;1292;48.020;7.822;2023-12-29T07:59:15;5.10;;;3.60;;
2564;SDS011;1292;48.020;7.822;2023-12-29T08:01:42;2.00;;;1.90;;
2564;SDS011;1292;48.020;7.822;2023-12-29T08:04:09;2.40;;;2.20;;
2564;SDS011;1292;48.020;7.822;2023-12-29T08:06:36;1.80;;;1.70;;
2564;SDS011;1292;48.020;7.822;2023-12-29T08:09:03;2.00;;;1.80;;
2564;SDS011;1292;48.020;7.822;2023-12-29T08:11:33;2.30;;;2.10;;
2564;SDS011;1292;48.020;7.822;2023-12-29T08:14:00;4.33;;;2.67;;
2564;SDS011;1292;48.020;7.822;2023-12-29T08:16:27;4.67;;;3.13;;
2564;SDS011;1292;48.020;7.822;2023-12-29T08:18:54;2.73;;;2.40;;
2564;SDS011;1292;48.020;7.822;2023-12-29T08:21:21;4.30;;;3.63;;
2564;SDS011;1292;48.020;7.822;2023-12-29T08:23:48;3.10;;;2.60;;
2564;SDS011;1292;48.020;7.822;2023-12-29T08:26:15;11.97;;;9.23;;
2564;SDS011;1292;48.020;7.822;2023-12-29T08:28:43;8.57;;;5.17;;
2564;SDS011;1292;48.020;7.822;2023-12-29T08:31:10;9.47;;;5.90;;
2564;SDS011;1292;48.020;7.822;2023-12-29T08:33:37;10.23;;;6.20;;
2564;SDS011;1292;48.020;7.822;2023-12-29T08:36:04;3.37;;;3.07;;
2564;SDS011;1292;48.020;7.822;2023-12-29T08:38:31;3.50;;;2.30;;
2564;SDS011;1292;48.020;7.822;2023-12-29T08:40:59;2.63;;;2.43;;
2564;SDS011;1292;48.020;7.822;2023-12-29T08:43:26;2.43;;;1.80;;
2564;SDS011;1292;48.020;7.822;2023-12-29T08:45:54;1.87;;;1.77;;
2564;SDS011;1292;48.020;7.822;2023-12-29T08:48:21;3.90;;;2.70;;
2564;SDS011;1292;48.020;7.822;2023-12-29T08:50:48;2.33;;;1.90;;
2564;SDS011;1292;48.020;7.822;2023-12-29T08:53:16;3.57;;;3.27;;
2564;SDS011;1292;48.020;7.822;2023-12-29T08:55:43;3.70;;;3.30;;
2564;SDS011;1292;48.020;7.822;2023-12-29T08:58:10;1.90;;;1.80;;
2564;SDS011;1292;48.020;7.822;2023-12-29T09:00:38;3.40;;;2.73;;
2564;SDS011;1292;48.020;7.822;2023-12-29T09:03:07;3.20;;;2.90;;
2564;SDS011;1292;48.020;7.822;2023-12-29T09:05:33;3.43;;;1.90;;
2564;SDS011;1292;48.020;7.822;2023-12-29T09:08:00;3.23;;;2.90;;
2564;SDS011;1292;48.020;7.822;2023-12-29T09:10:27;4.07;;;2.73;;
2564;SDS011;1292;48.020;7.822;2023-12-29T09:12:54;3.00;;;2.70;;
2564;SDS011;1292;48.020;7.822;2023-12-29T09:15:20;2.53;;;2.33;;
2564;SDS011;1292;48.020;7.822;2023-12-29T09:17:48;2.73;;;2.53;;
2564;SDS011;1292;48.020;7.822;2023-12-29T09:20:16;1.90;;;1.80;;
2564;SDS011;1292;48.020;7.822;2023-12-29T09:22:43;3.73;;;2.80;;
2564;SDS011;1292;48.020;7.822;2023-12-29T09:25:10;3.77;;;3.43;;
2564;SDS011;1292;48.020;7.822;2023-12-29T09:27:39;1.97;;;1.83;;
2564;SDS011;1292;48.020;7.822;2023-12-29T09:30:06;3.13;;;2.50;;
2564;SDS011;1292;48.020;7.822;2023-12-29T09:32:34;2.47;;;2.27;;
2564;SDS011;1292;48.020;7.822;2023-12-29T09:35:01;2.93;;;2.17;;
2564;SDS011;1292;48.020;7.822;2023-12-29T09:37:29;1.83;;;1.73;;
2564;SDS011;1292;48.020;7.822;2023-12-29T09:39:56;5.80;;;2.00;;
2564;SDS011;1292;48.020;7.822;2023-12-29T09:42:23;2.27;;;1.77;;
2564;SDS011;1292;48.020;7.822;2023-12-29T09:44:54;2.90;;;1.67;;
2564;SDS011;1292;48.020;7.822;2023-12-29T09:47:22;2.20;;;2.00;;
2564;SDS011;1292;48.020;7.822;2023-12-29T09:49:51;2.70;;;2.20;;
2564;SDS011;1292;48.020;7.822;2023-12-29T09:52:20;2.50;;;2.10;;
2564;SDS011;1292;48.020;7.822;2023-12-29T09:54:49;2.60;;;1.90;;
2564;SDS011;1292;48.020;7.822;2023-12-29T09:57:17;2.60;;;2.43;;
2564;SDS011;1292;48.020;7.822;2023-12-29T09:59:44;2.93;;;2.53;;
2564;SDS011;1292;48.020;7.822;2023-12-29T10:02:16;2.73;;;1.77;;
2564;SDS011;1292;48.020;7.822;2023-12-29T10:04:43;2.37;;;2.20;;
2564;SDS011;1292;48.020;7.822;2023-12-29T10:07:12;1.90;;;1.80;;
2564;SDS011;1292;48.020;7.822;2023-12-29T10:09:45;1.93;;;1.40;;
2564;SDS011;1292;48.020;7.822;2023-12-29T10:12:15;1.93;;;1.57;;
2564;SDS011;1292;48.020;7.822;2023-12-29T10:14:44;2.37;;;2.03;;
2564;SDS011;1292;48.020;7.822;2023-12-29T10:17:19;1.70;;;1.60;;
2564;SDS011;1292;48.020;7.822;2023-12-29T10:19:56;1.60;;;1.50;;
2564;SDS011;1292;48.020;7.822;2023-12-29T10:22:31;2.73;;;2.47;;
2564;SDS011;1292;48.020;7.822;2023-12-29T10:25:05;3.90;;;2.67;;
2564;SDS011;1292;48.020;7.822;2023-12-29T10:27:34;2.90;;;1.70;;
2564;SDS011;1292;48.020;7.822;2023-12-29T10:30:01;3.97;;;3.50;;
2564;SDS011;1292;48.020;7.822;2023-12-29T10:32:28;2.30;;;2.10;;
2564;SDS011;1292;48.020;7.822;2023-12-29T10:35:07;2.60;;;1.63;;
2564;SDS011;1292;48.020;7.822;2023-12-29T10:37:35;1.80;;;1.70;;
2564;SDS011;1292;48.020;7.822;2023-12-29T10:40:02;2.23;;;2.13;;
2564;SDS011;1292;48.020;7.822;2023-12-29T10:42:29;1.60;;;1.50;;
2564;SDS011;1292;48.020;7.822;2023-12-29T10:45:06;3.43;;;2.00;;
2564;SDS011;1292;48.020;7.822;2023-12-29T10:47:35;2.07;;;1.87;;
2564;SDS011;1292;48.020;7.822;2023-12-29T10:50:03;2.83;;;2.10;;
2564;SDS011;1292;48.020;7.822;2023-12-29T10:52:31;3.00;;;2.10;;
2564;SDS011;1292;48.020;7.822;2023-12-29T10:55:05;1.73;;;1.63;;
2564;SDS011;1292;48.020;7.822;2023-12-29T10:57:32;5.60;;;4.20;;
2564;SDS011;1292;48.020;7.822;2023-12-29T10:59:59;4.10;;;3.50;;
2564;SDS011;1292;48.020;7.822;2023-12-29T11:02:28;2.30;;;2.10;;
2564;SDS011;1292;48.020;7.822;2023-12-29T11:05:01;3.50;;;2.43;;
2564;SDS011;1292;48.020;7.822;2023-12-29T11:07:32;3.10;;;2.90;;
2564;SDS011;1292;48.020;7.822;2023-12-29T11:10:00;3.30;;;3.00;;
2564;SDS011;1292;48.020;7.822;2023-12-29T11:12:29;2.97;;;2.77;;
2564;SDS011;1292;48.020;7.822;2023-12-29T11:14:58;3.33;;;3.03;;
2564;SDS011;1292;48.020;7.822;2023-12-29T11:17:29;4.70;;;2.60;;
2564;SDS011;1292;48.020;7.822;2023-12-29T11:19:58;2.57;;;2.37;;
2564;SDS011;1292;48.020;7.822;2023-12-29T11:22:28;3.30;;;3.00;;
2564;SDS011;1292;48.020;7.822;2023-12-29T11:24:56;2.30;;;2.10;;
2564;SDS011;1292;48.020;7.822;2023-12-29T11:27:25;2.20;;;2.10;;
2564;SDS011;1292;48.020;7.822;2023-12-29T11:29:55;2.53;;;2.33;;
2564;SDS011;1292;48.020;7.822;2023-12-29T11:32:24;3.37;;;2.60;;
2564;SDS011;1292;48.020;7.822;2023-12-29T11:35:11;3.13;;;2.47;;
2564;SDS011;1292;48.020;7.822;2023-12-29T11:40:30;3.70;;;2.10;;
2564;SDS011;1292;48.020;7.822;2023-12-29T11:43:03;2.00;;;1.80;;
2564;SDS011;1292;48.020;7.822;2023-12-29T11:45:35;5.53;;;1.87;;
2564;SDS011;1292;48.020;7.822;2023-12-29T11:48:04;3.03;;;2.60;;
2564;SDS011;1292;48.020;7.822;2023-12-29T11:50:32;4.00;;;2.40;;
2564;SDS011;1292;48.020;7.822;2023-12-29T11:52:59;3.70;;;2.50;;
2564;SDS011;1292;48.020;7.822;2023-12-29T11:55:29;3.33;;;2.67;;
2564;SDS011;1292;48.020;7.822;2023-12-29T11:57:59;3.00;;;2.53;;
2564;SDS011;1292;48.020;7.822;2023-12-29T12:00:41;3.10;;;2.80;;
2564;SDS011;1292;48.020;7.822;2023-12-29T12:03:14;2.90;;;2.20;;
2564;SDS011;1292;48.020;7.822;2023-12-29T12:05:46;2.80;;;2.10;;
2564;SDS011;1292;48.020;7.822;2023-12-29T12:08:26;2.17;;;2.00;;
2564;SDS011;1292;48.020;7.822;2023-12-29T12:10:54;1.97;;;1.30;;
2564;SDS011;1292;48.020;7.822;2023-12-29T12:16:19;3.57;;;1.73;;
2564;SDS011;1292;48.020;7.822;2023-12-29T12:19:15;2.13;;;1.90;;
2564;SDS011;1292;48.020;7.822;2023-12-29T12:21:45;2.13;;;1.77;;
2564;SDS011;1292;48.020;7.822;2023-12-29T12:24:13;1.83;;;1.73;;
2564;SDS011;1292;48.020;7.822;2023-12-29T12:26:40;2.77;;;1.90;;
2564;SDS011;1292;48.020;7.822;2023-12-29T12:29:07;1.47;;;1.33;;
2564;SDS011;1292;48.020;7.822;2023-12-29T12:31:35;2.13;;;1.53;;
2564;SDS011;1292;48.020;7.822;2023-12-29T12:34:01;3.00;;;2.03;;
2564;SDS011;1292;48.020;7.822;2023-12-29T12:36:31;3.43;;;1.80;;
2564;SDS011;1292;48.020;7.822;2023-12-29T12:38:58;3.63;;;2.20;;
2564;SDS011;1292;48.020;7.822;2023-12-29T12:41:26;2.37;;;2.17;;
2564;SDS011;1292;48.020;7.822;2023-12-29T12:43:57;2.60;;;1.80;;
2564;SDS011;1292;48.020;7.822;2023-12-29T12:46:29;3.20;;;2.63;;
2564;SDS011;1292;48.020;7.822;2023-12-29T12:48:59;1.83;;;1.60;;
2564;SDS011;1292;48.020;7.822;2023-12-29T12:51:26;2.90;;;2.17;;
2564;SDS011;1292;48.020;7.822;2023-12-29T12:53:54;2.73;;;2.53;;
2564;SDS011;1292;48.020;7.822;2023-12-29T12:56:21;2.73;;;2.53;;
2564;SDS011;1292;48.020;7.822;2023-12-29T12:58:52;3.07;;;2.77;;
2564;SDS011;1292;48.020;7.822;2023-12-29T13:01:21;1.93;;;1.60;;
2564;SDS011;1292;48.020;7.822;2023-12-29T13:03:48;2.60;;;1.97;;
2564;SDS011;1292;48.020;7.822;2023-12-29T13:06:15;2.37;;;2.17;;
2564;SDS011;1292;48.020;7.822;2023-12-29T13:08:42;2.50;;;2.30;;
2564;SDS011;1292;48.020;7.822;2023-12-29T13:11:11;2.80;;;2.50;;
2564;SDS011;1292;48.020;7.822;2023-12-29T13:13:38;1.90;;;1.80;;
2564;SDS011;1292;48.020;7.822;2023-12-29T13:16:06;3.00;;;2.70;;
2564;SDS011;1292;48.020;7.822;2023-12-29T13:18:33;2.80;;;2.40;;
2564;SDS011;1292;48.020;7.822;2023-12-29T13:21:00;6.13;;;3.83;;
2564;SDS011;1292;48.020;7.822;2023-12-29T13:23:29;4.53;;;3.30;;
2564;SDS011;1292;48.020;7.822;2023-12-29T13:25:56;2.93;;;2.63;;
2564;SDS011;1292;48.020;7.822;2023-12-29T13:28:26;2.80;;;1.97;;
2564;SDS011;1292;48.020;7.822;2023-12-29T13:30:54;2.47;;;2.10;;
2564;SDS011;1292;48.020;7.822;2023-12-29T13:33:24;5.03;;;2.20;;
2564;SDS011;1292;48.020;7.822;2023-12-29T13:35:57;4.67;;;2.73;;
2564;SDS011;1292;48.020;7.822;2023-12-29T13:38:35;2.80;;;2.57;;
2564;SDS011;1292;48.020;7.822;2023-12-29T13:41:09;2.90;;;2.50;;
2564;SDS011;1292;48.020;7.822;2023-12-29T13:43:39;2.30;;;2.10;;
2564;SDS011;1292;48.020;7.822;2023-12-29T13:46:08;2.30;;;1.97;;
2564;SDS011;1292;48.020;7.822;2023-12-29T13:48:37;2.20;;;2.00;;
2564;SDS011;1292;48.020;7.822;2023-12-29T13:51:06;3.60;;;3.40;;
2564;SDS011;1292;48.020;7.822;2023-12-29T13:53:33;2.50;;;2.30;;
2564;SDS011;1292;48.020;7.822;2023-12-29T13:56:05;4.20;;;2.30;;
2564;SDS011;1292;48.020;7.822;2023-12-29T13:58:32;3.50;;;2.93;;
2564;SDS011;1292;48.020;7.822;2023-12-29T14:01:01;7.70;;;4.50;;
2564;SDS011;1292;48.020;7.822;2023-12-29T14:03:37;4.13;;;3.60;;
2564;SDS011;1292;48.020;7.822;2023-12-29T14:06:11;2.70;;;2.50;;
2564;SDS011;1292;48.020;7.822;2023-12-29T14:08:45;4.17;;;2.60;;
2564;SDS011;1292;48.020;7.822;2023-12-29T14:11:12;2.50;;;2.30;;
2564;SDS011;1292;48.020;7.822;2023-12-29T14:13:41;2.90;;;2.27;;
2564;SDS011;1292;48.020;7.822;2023-12-29T14:16:09;3.53;;;2.20;;
2564;SDS011;1292;48.020;7.822;2023-12-29T14:18:43;4.90;;;3.23;;
2564;SDS011;1292;48.020;7.822;2023-12-29T14:21:22;3.40;;;3.10;;
2564;SDS011;1292;48.020;7.822;2023-12-29T14:23:59;2.67;;;2.40;;
2564;SDS011;1292;48.020;7.822;2023-12-29T14:26:28;3.80;;;3.43;;
2564;SDS011;1292;48.020;7.822;2023-12-29T14:29:02;4.30;;;3.10;;
2564;SDS011;1292;48.020;7.822;2023-12-29T14:31:32;4.90;;;3.13;;
2564;SDS011;1292;48.020;7.822;2023-12-29T14:34:01;2.50;;;2.13;;
2564;SDS011;1292;48.020;7.822;2023-12-29T14:36:28;3.13;;;2.83;;
2564;SDS011;1292;48.020;7.822;2023-12-29T14:38:55;3.20;;;2.80;;
2564;SDS011;1292;48.020;7.822;2023-12-29T14:41:22;1.90;;;1.80;;
2564;SDS011;1292;48.020;7.822;2023-12-29T14:43:49;3.33;;;2.63;;
2564;SDS011;1292;48.020;7.822;2023-12-29T14:46:16;3.60;;;3.30;;
2564;SDS011;1292;48.020;7.822;2023-12-29T14:48:44;3.47;;;2.93;;
2564;SDS011;1292;48.020;7.822;2023-12-29T14:51:11;3.10;;;2.80;;
2564;SDS011;1292;48.020;7.822;2023-12-29T14:53:38;3.50;;;3.17;;
2564;SDS011;1292;48.020;7.822;2023-12-29T14:56:05;3.13;;;2.83;;
2564;SDS011;1292;48.020;7.822;2023-12-29T14:58:32;3.17;;;2.87;;
2564;SDS011;1292;48.020;7.822;2023-12-29T15:01:01;3.83;;;2.90;;
2564;SDS011;1292;48.020;7.822;2023-12-29T15:03:28;3.00;;;2.70;;
2564;SDS011;1292;48.020;7.822;2023-12-29T15:05:57;4.03;;;3.63;;
2564;SDS011;1292;48.020;7.822;2023-12-29T15:08:24;2.70;;;2.50;;
2564;SDS011;1292;48.020;7.822;2023-12-29T15:10:53;4.37;;;3.97;;
2564;SDS011;1292;48.020;7.822;2023-12-29T15:13:20;4.33;;;3.80;;
2564;SDS011;1292;48.020;7.822;2023-12-29T15:15:47;4.20;;;3.27;;
2564;SDS011;1292;48.020;7.822;2023-12-29T15:18:13;3.73;;;3.40;;
2564;SDS011;1292;48.020;7.822;2023-12-29T15:20:42;3.70;;;3.37;;
2564;SDS011;1292;48.020;7.822;2023-12-29T15:23:10;2.73;;;2.53;;
2564;SDS011;1292;48.020;7.822;2023-12-29T15:25:37;3.13;;;2.50;;
2564;SDS011;1292;48.020;7.822;2023-12-29T15:28:04;2.47;;;2.27;;
2564;SDS011;1292;48.020;7.822;2023-12-29T15:30:31;2.97;;;2.60;;
2564;SDS011;1292;48.020;7.822;2023-12-29T15:32:58;2.90;;;2.47;;
2564;SDS011;1292;48.020;7.822;2023-12-29T15:35:25;3.67;;;2.30;;
2564;SDS011;1292;48.020;7.822;2023-12-29T15:37:53;2.23;;;2.03;;
2564;SDS011;1292;48.020;7.822;2023-12-29T15:40:21;2.13;;;1.93;;
2564;SDS011;1292;48.020;7.822;2023-12-29T15:42:48;3.27;;;2.30;;
2564;SDS011;1292;48.020;7.822;2023-12-29T15:45:15;2.30;;;2.17;;
2564;SDS011;1292;48.020;7.822;2023-12-29T15:47:43;1.80;;;1.70;;
2564;SDS011;1292;48.020;7.822;2023-12-29T15:50:10;4.27;;;2.67;;
2564;SDS011;1292;48.020;7.822;2023-12-29T15:52:37;3.80;;;3.00;;
2564;SDS011;1292;48.020;7.822;2023-12-29T15:55:04;3.53;;;3.23;;
2564;SDS011;1292;48.020;7.822;2023-12-29T15:57:33;3.37;;;3.07;;
2564;SDS011;1292;48.020;7.822;2023-12-29T16:00:00;2.40;;;2.20;;
2564;SDS011;1292;48.020;7.822;2023-12-29T16:02:28;4.07;;;3.30;;
2564;SDS011;1292;48.020;7.822;2023-12-29T16:04:55;3.67;;;2.90;;
2564;SDS011;1292;48.020;7.822;2023-12-29T16:07:22;2.73;;;2.30;;
2564;SDS011;1292;48.020;7.822;2023-12-29T16:09:49;2.57;;;2.37;;
2564;SDS011;1292;48.020;7.822;2023-12-29T16:12:15;2.20;;;2.00;;
2564;SDS011;1292;48.020;7.822;2023-12-29T16:14:44;6.03;;;3.90;;
2564;SDS011;1292;48.020;7.822;2023-12-29T16:17:11;4.70;;;3.67;;
2564;SDS011;1292;48.020;7.822;2023-12-29T16:19:38;5.03;;;3.67;;
2564;SDS011;1292;48.020;7.822;2023-12-29T16:22:05;3.23;;;2.67;;
2564;SDS011;1292;48.020;7.822;2023-12-29T16:24:31;4.00;;;3.10;;
2564;SDS011;1292;48.020;7.822;2023-12-29T16:26:58;3.40;;;3.10;;
2564;SDS011;1292;48.020;7.822;2023-12-29T16:29:25;4.00;;;3.53;;
2564;SDS011;1292;48.020;7.822;2023-12-29T16:31:53;3.80;;;3.10;;
2564;SDS011;1292;48.020;7.822;2023-12-29T16:34:20;4.00;;;2.47;;
2564;SDS011;1292;48.020;7.822;2023-12-29T16:36:55;2.87;;;2.67;;
2564;SDS011;1292;48.020;7.822;2023-12-29T16:39:23;2.80;;;2.60;;
2564;SDS011;1292;48.020;7.822;2023-12-29T16:41:50;2.70;;;2.40;;
2564;SDS011;1292;48.020;7.822;2023-12-29T16:44:17;3.63;;;3.33;;
2564;SDS011;1292;48.020;7.822;2023-12-29T16:46:44;3.40;;;2.77;;
2564;SDS011;1292;48.020;7.822;2023-12-29T16:49:12;4.37;;;3.77;;
2564;SDS011;1292;48.020;7.822;2023-12-29T16:51:39;2.83;;;2.63;;
2564;SDS011;1292;48.020;7.822;2023-12-29T16:54:06;4.27;;;2.93;;
2564;SDS011;1292;48.020;7.822;2023-12-29T16:56:32;3.70;;;2.90;;
2564;SDS011;1292;48.020;7.822;2023-12-29T16:58:59;6.07;;;3.20;;
2564;SDS011;1292;48.020;7.822;2023-12-29T17:01:27;4.07;;;3.70;;
2564;SDS011;1292;48.020;7.822;2023-12-29T17:03:55;5.00;;;3.07;;
2564;SDS011;1292;48.020;7.822;2023-12-29T17:06:23;4.90;;;3.03;;
2564;SDS011;1292;48.020;7.822;2023-12-29T17:08:50;10.80;;;6.97;;
2564;SDS011;1292;48.020;7.822;2023-12-29T17:11:17;12.70;;;6.87;;
2564;SDS011;1292;48.020;7.822;2023-12-29T17:13:43;5.83;;;4.13;;
2564;SDS011;1292;48.020;7.822;2023-12-29T17:16:10;4.20;;;3.00;;
2564;SDS011;1292;48.020;7.822;2023-12-29T17:18:37;2.40;;;2.20;;
2564;SDS011;1292;48.020;7.822;2023-12-29T17:21:04;5.20;;;4.00;;
2564;SDS011;1292;48.020;7.822;2023-12-29T17:23:34;3.07;;;2.50;;
2564;SDS011;1292;48.020;7.822;2023-12-29T17:26:01;4.03;;;3.07;;
2564;SDS011;1292;48.020;7.822;2023-12-29T17:28:34;5.10;;;3.80;;
2564;SDS011;1292;48.020;7.822;2023-12-29T17:31:01;2.73;;;2.30;;
2564;SDS011;1292;48.020;7.822;2023-12-29T17:33:28;2.90;;;2.33;;
2564;SDS011;1292;48.020;7.822;2023-12-29T17:35:55;3.00;;;2.40;;
2564;SDS011;1292;48.020;7.822;2023-12-29T17:38:22;4.33;;;3.57;;
2564;SDS011;1292;48.020;7.822;2023-12-29T17:40:50;3.93;;;3.53;;
2564;SDS011;1292;48.020;7.822;2023-12-29T17:43:17;5.30;;;3.60;;
2564;SDS011;1292;48.020;7.822;2023-12-29T17:45:44;4.93;;;4.20;;
2564;SDS011;1292;48.020;7.822;2023-12-29T17:48:11;4.57;;;4.20;;
2564;SDS011;1292;48.020;7.822;2023-12-29T17:50:38;4.10;;;3.67;;
2564;SDS011;1292;48.020;7.822;2023-12-29T17:53:05;7.00;;;4.30;;
2564;SDS011;1292;48.020;7.822;2023-12-29T17:55:32;2.40;;;2.20;;
2564;SDS011;1292;48.020;7.822;2023-12-29T17:58:00;3.20;;;2.60;;
2564;SDS011;1292;48.020;7.822;2023-12-29T18:00:27;2.70;;;2.50;;
2564;SDS011;1292;48.020;7.822;2023-12-29T18:02:55;3.13;;;2.57;;
2564;SDS011;1292;48.020;7.822;2023-12-29T18:05:22;2.87;;;2.57;;
2564;SDS011;1292;48.020;7.822;2023-12-29T18:07:49;2.40;;;2.20;;
2564;SDS011;1292;48.020;7.822;2023-12-29T18:10:16;3.40;;;2.87;;
2564;SDS011;1292;48.020;7.822;2023-12-29T18:12:43;3.80;;;2.90;;
2564;SDS011;1292;48.020;7.822;2023-12-29T18:15:11;4.50;;;3.00;;
2564;SDS011;1292;48.020;7.822;2023-12-29T18:17:39;4.57;;;2.93;;
2564;SDS011;1292;48.020;7.822;2023-12-29T18:20:06;2.53;;;2.27;;
2564;SDS011;1292;48.020;7.822;2023-12-29T18:22:37;2.80;;;2.60;;
2564;SDS011;1292;48.020;7.822;2023-12-29T18:25:05;3.20;;;2.97;;
2564;SDS011;1292;48.020;7.822;2023-12-29T18:27:32;3.17;;;2.70;;
2564;SDS011;1292;48.020;7.822;2023-12-29T18:29:59;3.20;;;2.60;;
2564;SDS011;1292;48.020;7.822;2023-12-29T18:32:27;5.83;;;4.40;;
2564;SDS011;1292;48.020;7.822;2023-12-29T18:34:54;4.00;;;3.00;;
2564;SDS011;1292;48.020;7.822;2023-12-29T18:37:20;5.10;;;4.70;;
2564;SDS011;1292;48.020;7.822;2023-12-29T18:39:47;4.50;;;4.10;;
2564;SDS011;1292;48.020;7.822;2023-12-29T18:42:14;3.93;;;3.40;;
2564;SDS011;1292;48.020;7.822;2023-12-29T18:44:41;6.47;;;5.10;;
2564;SDS011;1292;48.020;7.822;2023-12-29T18:47:09;5.60;;;4.40;;
2564;SDS011;1292;48.020;7.822;2023-12-29T18:49:37;5.10;;;3.00;;
2564;SDS011;1292;48.020;7.822;2023-12-29T18:52:04;3.70;;;2.70;;
2564;SDS011;1292;48.020;7.822;2023-12-29T18:54:32;3.63;;;3.07;;
2564;SDS011;1292;48.020;7.822;2023-12-29T18:56:58;3.70;;;3.40;;
2564;SDS011;1292;48.020;7.822;2023-12-29T18:59:26;3.27;;;2.97;;
2564;SDS011;1292;48.020;7.822;2023-12-29T19:01:53;4.07;;;2.80;;
2564;SDS011;1292;48.020;7.822;2023-12-29T19:04:21;5.20;;;3.57;;
2564;SDS011;1292;48.020;7.822;2023-12-29T19:06:49;3.87;;;3.20;;
2564;SDS011;1292;48.020;7.822;2023-12-29T19:09:15;3.53;;;3.13;;
2564;SDS011;1292;48.020;7.822;2023-12-29T19:11:42;3.33;;;2.63;;
2564;SDS011;1292;48.020;7.822;2023-12-29T19:14:09;4.70;;;2.97;;
2564;SDS011;1292;48.020;7.822;2023-12-29T19:16:36;4.00;;;3.47;;
2564;SDS011;1292;48.020;7.822;2023-12-29T19:19:03;4.87;;;3.60;;
2564;SDS011;1292;48.020;7.822;2023-12-29T19:21:30;4.80;;;3.50;;
2564;SDS011;1292;48.020;7.822;2023-12-29T19:23:59;3.50;;;3.20;;
2564;SDS011;1292;48.020;7.822;2023-12-29T19:26:26;3.80;;;3.10;;
2564;SDS011;1292;48.020;7.822;2023-12-29T19:28:54;5.13;;;3.37;;
2564;SDS011;1292;48.020;7.822;2023-12-29T19:31:21;2.53;;;2.33;;
2564;SDS011;1292;48.020;7.822;2023-12-29T19:33:50;3.57;;;3.27;;
2564;SDS011;1292;48.020;7.822;2023-12-29T19:36:18;3.90;;;3.50;;
2564;SDS011;1292;48.020;7.822;2023-12-29T19:38:45;5.37;;;3.53;;
2564;SDS011;1292;48.020;7.822;2023-12-29T19:41:16;3.30;;;2.77;;
2564;SDS011;1292;48.020;7.822;2023-12-29T19:43:45;9.73;;;3.10;;
2564;SDS011;1292;48.020;7.822;2023-12-29T19:46:13;3.40;;;2.33;;
2564;SDS011;1292;48.020;7.822;2023-12-29T19:48:39;4.17;;;2.47;;
2564;SDS011;1292;48.020;7.822;2023-12-29T19:51:07;8.47;;;3.27;;
2564;SDS011;1292;48.020;7.822;2023-12-29T19:53:34;13.03;;;10.13;;
2564;SDS011;1292;48.020;7.822;2023-12-29T19:56:01;9.37;;;8.13;;
2564;SDS011;1292;48.020;7.822;2023-12-29T19:58:31;5.57;;;5.03;;
2564;SDS011;1292;48.020;7.822;2023-12-29T20:00:59;4.80;;;4.03;;
2564;SDS011;1292;48.020;7.822;2023-12-29T20:03:26;3.47;;;3.17;;
2564;SDS011;1292;48.020;7.822;2023-12-29T20:05:53;3.70;;;3.40;;
2564;SDS011;1292;48.020;7.822;2023-12-29T20:08:19;3.60;;;3.30;;
2564;SDS011;1292;48.020;7.822;2023-12-29T20:10:46;5.27;;;3.80;;
2564;SDS011;1292;48.020;7.822;2023-12-29T20:13:13;5.17;;;4.40;;
2564;SDS011;1292;48.020;7.822;2023-12-29T20:15:41;4.73;;;4.00;;
2564;SDS011;1292;48.020;7.822;2023-12-29T20:18:09;10.70;;;5.80;;
2564;SDS011;1292;48.020;7.822;2023-12-29T20:20:36;10.07;;;7.10;;
2564;SDS011;1292;48.020;7.822;2023-12-29T20:23:03;6.50;;;5.53;;
2564;SDS011;1292;48.020;7.822;2023-12-29T20:25:30;5.80;;;5.20;;
2564;SDS011;1292;48.020;7.822;2023-12-29T20:27:57;7.70;;;6.90;;
2564;SDS011;1292;48.020;7.822;2023-12-29T20:30:26;5.67;;;5.17;;
2564;SDS011;1292;48.020;7.822;2023-12-29T20:32:54;5.77;;;5.23;;
2564;SDS011;1292;48.020;7.822;2023-12-29T20:35:21;6.07;;;4.73;;
2564;SDS011;1292;48.020;7.822;2023-12-29T20:37:48;5.00;;;4.50;;
2564;SDS011;1292;48.020;7.822;2023-12-29T20:40:15;4.13;;;3.60;;
2564;SDS011;1292;48.020;7.822;2023-12-29T20:42:42;4.03;;;2.83;;
2564;SDS011;1292;48.020;7.822;2023-12-29T20:45:10;3.60;;;3.23;;
2564;SDS011;1292;48.020;7.822;2023-12-29T20:47:37;4.40;;;3.67;;
2564;SDS011;1292;48.020;7.822;2023-12-29T20:50:06;4.57;;;4.10;;
2564;SDS011;1292;48.020;7.822;2023-12-29T20:52:33;7.53;;;3.47;;
2564;SDS011;1292;48.020;7.822;2023-12-29T20:55:00;9.30;;;4.27;;
2564;SDS011;1292;48.020;7.822;2023-12-29T20:57:29;4.83;;;3.60;;
2564;SDS011;1292;48.020;7.822;2023-12-29T20:59:57;3.50;;;3.20;;
2564;SDS011;1292;48.020;7.822;2023-12-29T21:02:24;6.30;;;3.93;;
2564;SDS011;1292;48.020;7.822;2023-12-29T21:04:51;4.77;;;3.03;;
2564;SDS011;1292;48.020;7.822;2023-12-29T21:07:19;3.40;;;2.27;;
2564;SDS011;1292;48.020;7.822;2023-12-29T21:09:46;4.50;;;2.90;;
2564;SDS011;1292;48.020;7.822;2023-12-29T21:12:13;3.30;;;3.03;;
2564;SDS011;1292;48.020;7.822;2023-12-29T21:14:40;5.53;;;2.80;;
2564;SDS011;1292;48.020;7.822;2023-12-29T21:17:07;3.43;;;2.20;;
2564;SDS011;1292;48.020;7.822;2023-12-29T21:19:34;2.63;;;2.43;;
2564;SDS011;1292;48.020;7.822;2023-12-29T21:22:00;3.30;;;2.30;;
2564;SDS011;1292;48.020;7.822;2023-12-29T21:24:28;2.90;;;2.70;;
2564;SDS011;1292;48.020;7.822;2023-12-29T21:26:55;2.60;;;2.40;;
2564;SDS011;1292;48.020;7.822;2023-12-29T21:29:22;2.30;;;2.10;;
2564;SDS011;1292;48.020;7.822;2023-12-29T21:31:49;2.73;;;2.50;;
2564;SDS011;1292;48.020;7.822;2023-12-29T21:34:16;2.87;;;2.07;;
2564;SDS011;1292;48.020;7.822;2023-12-29T21:36:43;2.03;;;1.83;;
2564;SDS011;1292;48.020;7.822;2023-12-29T21:39:10;3.27;;;2.60;;
2564;SDS011;1292;48.020;7.822;2023-12-29T21:41:39;4.47;;;3.17;;
2564;SDS011;1292;48.020;7.822;2023-12-29T21:44:06;3.10;;;2.80;;
2564;SDS011;1292;48.020;7.822;2023-12-29T21:46:33;4.83;;;2.73;;
2564;SDS011;1292;48.020;7.822;2023-12-29T21:49:00;3.70;;;3.00;;
2564;SDS011;1292;48.020;7.822;2023-12-29T21:51:28;3.37;;;2.37;;
2564;SDS011;1292;48.020;7.822;2023-12-29T21:53:54;3.33;;;2.50;;
2564;SDS011;1292;48.020;7.822;2023-12-29T21:56:21;3.20;;;2.50;;
2564;SDS011;1292;48.020;7.822;2023-12-29T21:58:50;3.53;;;2.17;;
2564;SDS011;1292;48.020;7.822;2023-12-29T22:01:27;3.10;;;2.20;;
2564;SDS011;1292;48.020;7.822;2023-12-29T22:03:56;2.10;;;1.90;;
2564;SDS011;1292;48.020;7.822;2023-12-29T22:06:23;2.50;;;2.00;;
2564;SDS011;1292;48.020;7.822;2023-12-29T22:08:50;2.30;;;2.10;;
2564;SDS011;1292;48.020;7.822;2023-12-29T22:11:17;2.63;;;1.97;;